Time;durP1;ratioP1;P1;durP2;ratioP2;P2;SDS_P1;SDS_P2;PMS_P1;PMS_P2;Temp;Humidity;BMP_temperature;BMP_pressure;BME280_temperature;BME280_humidity;BME280_pressure;Samples;Min_cycle;Max_cycle;Signal;HPM_P1;HPM_P2
2023/05/18 00:00:01;;;;;;;7.93;3.53;;;;;;;6.43;73.45;102911.47;6224404;22;20072;-75
2023/05/18 00:02:30;;;;;;;6.60;2.92;;;;;;;6.41;73.67;102920.88;6251989;22;20028;-76
2023/05/18 00:05:00;;;;;;;6.03;3.80;;;;;;;6.38;73.67;102916.31;6250430;22;20071;-75
2023/05/18 00:07:32;;;;;;;7.47;2.90;;;;;;;6.34;73.78;102916.28;6250530;22;20016;-76
2023/05/18 00:10:00;;;;;;;4.22;2.88;;;;;;;6.30;73.82;102913.56;6252029;22;20016;-76
2023/05/18 00:12:27;;;;;;;7.18;2.38;;;;;;;6.29;73.96;102916.56;6252030;22;20020;-76
2023/05/18 00:14:53;;;;;;;10.80;3.13;;;;;;;6.27;74.04;102916.16;6250015;22;20128;-75
2023/05/18 00:17:20;;;;;;;6.00;2.83;;;;;;;6.26;74.03;102914.63;6252137;22;20040;-75
2023/05/18 00:19:49;;;;;;;5.43;2.38;;;;;;;6.22;73.91;102917.22;6252045;22;20013;-75
2023/05/18 00:22:17;;;;;;;7.47;2.95;;;;;;;6.17;74.40;102920.19;6251706;22;20017;-75
2023/05/18 00:24:45;;;;;;;6.15;2.30;;;;;;;6.16;74.20;102921.28;6251829;22;20071;-75
2023/05/18 00:27:12;;;;;;;4.40;2.47;;;;;;;6.15;74.02;102914.47;6224665;22;20019;-75
2023/05/18 00:29:39;;;;;;;7.20;2.88;;;;;;;6.12;74.25;102925.78;6251324;22;20016;-75
2023/05/18 00:32:05;;;;;;;6.38;2.60;;;;;;;6.10;74.48;102917.44;6250402;22;20024;-75
2023/05/18 00:34:32;;;;;;;4.47;2.47;;;;;;;6.09;74.12;102921.19;6251765;22;20045;-75
2023/05/18 00:36:59;;;;;;;6.18;3.00;;;;;;;6.06;74.38;102926.41;6250133;22;20469;-76
2023/05/18 00:39:25;;;;;;;6.80;2.15;;;;;;;6.01;74.34;102920.31;6250076;22;20040;-75
2023/05/18 00:41:52;;;;;;;4.75;2.40;;;;;;;6.00;74.63;102928.59;6250006;22;20517;-75
2023/05/18 00:44:19;;;;;;;5.57;2.47;;;;;;;5.98;74.89;102922.94;6251367;22;20017;-75
2023/05/18 00:46:45;;;;;;;5.50;2.50;;;;;;;5.94;75.24;102924.75;6249890;22;20024;-75
2023/05/18 00:49:12;;;;;;;6.45;2.78;;;;;;;5.91;75.40;102918.28;6251752;22;20510;-75
2023/05/18 00:51:39;;;;;;;8.82;2.92;;;;;;;5.90;75.17;102924.69;6250025;22;20379;-75
2023/05/18 00:54:07;;;;;;;5.00;2.55;;;;;;;5.86;75.73;102921.19;6249848;22;20013;-75
2023/05/18 00:56:35;;;;;;;6.88;2.97;;;;;;;5.84;75.81;102925.31;6251403;22;20028;-75
2023/05/18 00:59:02;;;;;;;4.10;2.30;;;;;;;5.81;75.34;102918.09;6251456;22;20351;-77
2023/05/18 01:01:33;;;;;;;11.02;3.05;;;;;;;5.78;76.02;102927.47;6251492;22;20017;-75
2023/05/18 01:04:01;;;;;;;5.75;2.63;;;;;;;5.78;76.18;102918.78;6251674;22;20013;-75
2023/05/18 01:06:31;;;;;;;4.30;2.88;;;;;;;5.75;76.09;102916.84;6249951;22;20024;-75
2023/05/18 01:09:03;;;;;;;5.05;2.45;;;;;;;5.71;76.96;102922.06;6251930;22;20019;-76
2023/05/18 01:11:50;;;;;;;6.50;3.13;;;;;;;5.69;76.50;102921.66;6224207;22;20051;-75
2023/05/18 01:14:32;;;;;;;7.25;2.63;;;;;;;5.66;76.83;102922.38;6251640;22;20021;-74
2023/05/18 01:17:15;;;;;;;;;;;;;;;5.64;76.14;102928.00;6252329;22;20088;-76
2023/05/18 01:20:05;;;;;;;9.23;2.92;;;;;;;5.62;77.01;102918.91;6250368;22;20021;-76
2023/05/18 01:22:49;;;;;;;4.93;2.65;;;;;;;5.61;77.14;102925.28;6250056;22;20024;-74
2023/05/18 01:25:31;;;;;;;3.70;2.60;;;;;;;5.58;76.74;102923.38;6250102;22;20103;-75
2023/05/18 01:28:05;;;;;;;6.32;3.08;;;;;;;5.56;77.57;102929.03;6251258;22;20092;-75
2023/05/18 01:30:40;;;;;;;8.23;3.17;;;;;;;5.55;77.24;102930.13;6251834;22;20557;-75
2023/05/18 01:33:12;;;;;;;6.78;3.03;;;;;;;5.54;77.46;102927.84;6249948;22;20450;-75
2023/05/18 01:35:47;;;;;;;4.63;2.63;;;;;;;5.51;77.72;102923.25;6249928;22;20025;-75
2023/05/18 01:38:19;;;;;;;5.53;2.58;;;;;;;5.51;77.57;102924.03;6251603;22;20023;-77
2023/05/18 01:41:26;;;;;;;4.30;2.65;;;;;;;5.51;76.96;102931.19;6249050;22;20096;-75
2023/05/18 01:44:16;;;;;;;8.45;3.20;;;;;;;5.47;77.46;102931.13;6128367;23;20436;-78
2023/05/18 01:46:55;;;;;;;6.70;2.72;;;;;;;5.45;77.85;102924.66;6103974;23;20050;-74
2023/05/18 01:49:31;;;;;;;4.63;2.40;;;;;;;5.44;77.75;102931.81;6128401;23;20041;-78
2023/05/18 01:52:05;;;;;;;6.45;2.90;;;;;;;5.42;78.05;102939.31;6128553;23;20022;-77
2023/05/18 01:54:32;;;;;;;10.40;3.30;;;;;;;5.40;77.97;102930.97;6128263;23;20030;-76
2023/05/18 01:56:59;;;;;;;3.08;2.72;;;;;;;5.40;78.68;102933.63;6127478;23;20023;-77
2023/05/18 01:59:27;;;;;;;6.47;2.88;;;;;;;5.38;78.34;102935.84;6103930;23;20058;-77
2023/05/18 02:01:59;;;;;;;10.27;2.95;;;;;;;5.36;78.20;102933.56;6103719;23;20015;-77
2023/05/18 02:04:26;;;;;;;5.65;2.72;;;;;;;5.34;78.36;102924.44;6127959;23;20445;-77
2023/05/18 02:06:54;;;;;;;5.35;2.90;;;;;;;5.31;78.32;102930.44;6128615;23;20066;-77
2023/05/18 02:09:21;;;;;;;8.70;3.13;;;;;;;5.29;78.33;102928.16;6128237;23;20105;-77
2023/05/18 02:11:49;;;;;;;5.80;2.85;;;;;;;5.28;79.08;102931.13;6103260;23;20022;-77
2023/05/18 02:14:15;;;;;;;5.63;2.60;;;;;;;5.26;78.90;102933.34;6147911;22;20443;-77
2023/05/18 02:16:45;;;;;;;3.08;2.63;;;;;;;5.24;78.70;102922.38;6251415;22;20017;-76
2023/05/18 02:19:13;;;;;;;6.25;3.20;;;;;;;5.24;79.14;102930.31;6249397;22;20194;-76
2023/05/18 02:21:42;;;;;;;4.13;2.75;;;;;;;5.23;79.55;102931.41;6249512;22;20079;-76
2023/05/18 02:24:09;;;;;;;5.50;2.95;;;;;;;5.21;79.74;102931.75;6250648;22;20446;-76
2023/05/18 02:26:36;;;;;;;3.55;2.83;;;;;;;5.19;79.42;102928.72;6249442;22;20415;-75
2023/05/18 02:29:08;;;;;;;3.40;2.85;;;;;;;5.18;79.42;102931.72;6249573;22;20017;-75
2023/05/18 02:31:34;;;;;;;10.27;3.10;;;;;;;5.17;79.95;102930.97;6249625;22;20017;-76
2023/05/18 02:34:01;;;;;;;4.95;2.67;;;;;;;5.15;80.13;102927.13;6249178;22;20048;-76
2023/05/18 02:36:35;;;;;;;5.10;3.22;;;;;;;5.12;80.31;102927.81;6249178;22;20044;-75
2023/05/18 02:39:06;;;;;;;7.60;2.90;;;;;;;5.11;80.34;102931.56;6248485;22;20021;-75
2023/05/18 02:41:33;;;;;;;5.20;2.67;;;;;;;5.09;80.15;102925.88;6249576;22;20336;-76
2023/05/18 02:44:02;;;;;;;8.63;3.10;;;;;;;5.07;80.47;102926.22;6251025;22;20013;-76
2023/05/18 02:46:28;;;;;;;6.68;3.63;;;;;;;5.03;80.28;102928.78;6251079;22;20016;-76
2023/05/18 02:48:56;;;;;;;6.70;3.30;;;;;;;5.03;80.13;102925.41;6249176;22;20028;-75
2023/05/18 02:51:23;;;;;;;9.27;3.38;;;;;;;5.01;80.76;102925.75;6224052;22;20051;-75
2023/05/18 02:53:50;;;;;;;6.38;3.05;;;;;;;4.99;80.30;102922.69;6248320;22;20534;-76
2023/05/18 02:56:18;;;;;;;7.53;3.42;;;;;;;4.98;80.06;102920.38;6248159;22;20506;-75
2023/05/18 02:58:56;;;;;;;5.82;3.17;;;;;;;4.95;79.87;102923.72;6248929;22;20024;-76
2023/05/18 03:01:30;;;;;;;8.43;2.85;;;;;;;4.95;79.87;102923.72;6249512;22;20439;-76
2023/05/18 03:03:57;;;;;;;7.13;2.83;;;;;;;4.94;79.50;102922.19;6249361;22;20024;-76
2023/05/18 03:06:25;;;;;;;6.35;2.72;;;;;;;4.93;79.81;102924.06;6249032;22;20025;-76
2023/05/18 03:08:53;;;;;;;7.38;3.30;;;;;;;4.90;79.63;102916.84;6248441;22;20044;-76
2023/05/18 03:11:25;;;;;;;4.82;3.10;;;;;;;4.88;79.61;102919.06;6248861;22;20490;-76
2023/05/18 03:13:51;;;;;;;9.35;2.63;;;;;;;4.86;79.70;102921.28;6223707;22;20052;-76
2023/05/18 03:16:19;;;;;;;7.13;2.97;;;;;;;4.84;79.47;102920.09;6248930;22;20186;-75
2023/05/18 03:18:45;;;;;;;3.97;2.58;;;;;;;4.81;79.57;102921.56;6250851;22;20061;-76
2023/05/18 03:21:12;;;;;;;6.28;2.70;;;;;;;4.78;80.19;102927.56;6248945;22;20459;-76
2023/05/18 03:23:39;;;;;;;5.32;2.80;;;;;;;4.77;80.13;102922.63;6248487;22;20122;-76
2023/05/18 03:26:10;;;;;;;10.20;3.42;;;;;;;4.75;80.01;102924.84;6252249;22;20513;-75
2023/05/18 03:28:38;;;;;;;4.97;3.35;;;;;;;4.73;80.04;102932.34;6250819;22;20115;-76
2023/05/18 03:31:04;;;;;;;9.60;3.00;;;;;;;4.72;79.85;102930.81;6252220;22;20023;-76
2023/05/18 03:33:32;;;;;;;5.72;2.95;;;;;;;4.71;79.93;102924.75;6250255;22;20462;-76
2023/05/18 03:36:03;;;;;;;9.73;3.20;;;;;;;4.71;80.03;102922.13;6250233;22;20429;-76
2023/05/18 03:38:30;;;;;;;7.85;2.75;;;;;;;4.70;79.74;102925.88;6249769;22;20055;-75
2023/05/18 03:41:03;;;;;;;6.68;3.03;;;;;;;4.69;80.18;102926.97;6249864;22;20016;-76
2023/05/18 03:43:31;;;;;;;5.82;3.10;;;;;;;4.69;80.25;102926.97;6251964;22;20020;-75
2023/05/18 03:45:59;;;;;;;5.13;2.90;;;;;;;4.68;80.59;102928.09;6249957;22;20025;-75
2023/05/18 03:48:26;;;;;;;7.95;2.88;;;;;;;4.68;80.27;102928.09;6249936;22;20017;-76
2023/05/18 03:50:53;;;;;;;7.65;2.78;;;;;;;4.68;80.36;102928.84;6251123;22;20080;-76
2023/05/18 03:53:20;;;;;;;8.77;3.65;;;;;;;4.67;80.74;102929.97;6249517;22;20040;-75
2023/05/18 03:55:50;;;;;;;7.40;2.97;;;;;;;4.67;80.75;102939.75;6249562;22;20112;-76
2023/05/18 03:58:21;;;;;;;6.07;3.28;;;;;;;4.67;81.10;102937.13;6250408;22;20458;-76
2023/05/18 04:00:48;;;;;;;5.63;3.05;;;;;;;4.66;81.22;102932.94;6252008;22;20071;-76
2023/05/18 04:03:15;;;;;;;10.07;2.53;;;;;;;4.65;81.06;102934.06;6249664;22;20027;-75
2023/05/18 04:05:44;;;;;;;7.75;3.15;;;;;;;4.67;81.33;102934.47;6249326;22;20024;-76
2023/05/18 04:08:13;;;;;;;3.15;2.88;;;;;;;4.67;81.00;102937.13;6251798;22;20035;-76
2023/05/18 04:10:43;;;;;;;4.68;2.72;;;;;;;4.66;81.12;102936.34;6252001;22;20485;-75
2023/05/18 04:13:11;;;;;;;8.75;3.40;;;;;;;4.68;81.48;102944.69;6251908;22;20019;-75
2023/05/18 04:15:38;;;;;;;5.80;2.83;;;;;;;4.69;81.34;102942.81;6249875;22;20092;-76
2023/05/18 04:18:04;;;;;;;4.60;2.58;;;;;;;4.74;81.36;102939.91;6251871;22;20048;-75
2023/05/18 04:20:31;;;;;;;4.72;2.83;;;;;;;4.75;81.39;102952.00;6251241;22;20012;-76
2023/05/18 04:22:59;;;;;;;9.23;2.95;;;;;;;4.78;81.09;102946.03;6249879;22;20027;-75
2023/05/18 04:25:26;;;;;;;11.73;3.70;;;;;;;4.81;80.99;102947.94;6251722;22;20021;-75
2023/05/18 04:27:55;;;;;;;10.32;3.20;;;;;;;4.83;80.90;102948.38;6249990;22;20226;-75
2023/05/18 04:30:25;;;;;;;8.73;3.30;;;;;;;4.84;80.69;102949.13;6249846;22;20024;-75
2023/05/18 04:32:53;;;;;;;8.80;3.08;;;;;;;4.86;80.52;102952.94;6249630;22;20090;-76
2023/05/18 04:35:20;;;;;;;7.47;3.13;;;;;;;4.95;80.64;102958.03;6248530;22;20024;-76
2023/05/18 04:37:46;;;;;;;11.43;3.42;;;;;;;5.07;80.42;102954.50;6249965;22;20455;-75
2023/05/18 04:40:16;;;;;;;10.65;2.97;;;;;;;5.23;80.14;102949.91;6249716;22;20017;-76
2023/05/18 04:42:46;;;;;;;6.15;2.92;;;;;;;5.31;79.30;102954.97;6249611;22;20522;-75
2023/05/18 04:45:18;;;;;;;8.52;3.15;;;;;;;5.36;79.33;102964.50;6250142;22;20024;-75
2023/05/18 04:47:52;;;;;;;6.75;2.88;;;;;;;5.46;79.05;102961.28;6249777;22;20021;-76
2023/05/18 04:50:24;;;;;;;10.45;3.08;;;;;;;5.82;78.30;102962.66;6249303;22;20019;-75
2023/05/18 04:52:51;;;;;;;6.55;2.70;;;;;;;6.12;76.98;102967.31;6251636;22;20013;-76
2023/05/18 04:55:27;;;;;;;9.40;3.08;;;;;;;6.29;75.92;102967.59;6249230;22;20024;-75
2023/05/18 04:58:04;;;;;;;8.65;3.28;;;;;;;6.46;74.98;102971.59;6249932;22;20017;-76
2023/05/18 05:00:31;;;;;;;9.23;3.17;;;;;;;6.50;74.94;102979.59;6249833;22;20075;-76
2023/05/18 05:02:58;;;;;;;3.20;2.90;;;;;;;6.58;74.45;102979.34;6251620;22;20013;-76
2023/05/18 05:05:25;;;;;;;8.27;2.80;;;;;;;6.98;73.55;102981.38;6249063;22;20031;-75
2023/05/18 05:07:54;;;;;;;6.05;2.83;;;;;;;7.88;72.08;102983.06;6249741;22;20438;-76
2023/05/18 05:10:21;;;;;;;11.07;3.05;;;;;;;9.21;68.05;102976.25;6251629;22;20012;-76
2023/05/18 05:12:49;;;;;;;7.47;3.05;;;;;;;10.70;61.73;102986.16;6224641;22;20366;-75
2023/05/18 05:15:17;;;;;;;7.45;2.70;;;;;;;11.79;58.20;102989.38;6251680;22;20448;-76
2023/05/18 05:17:48;;;;;;;9.07;2.50;;;;;;;12.62;55.74;102988.22;6249793;22;20097;-76
2023/05/18 05:20:16;;;;;;;7.20;2.42;;;;;;;13.54;52.77;102985.50;6249463;22;20043;-76
2023/05/18 05:22:42;;;;;;;8.88;2.55;;;;;;;14.03;50.34;102991.97;6249569;22;20017;-76
2023/05/18 05:25:11;;;;;;;6.72;2.67;;;;;;;13.63;50.28;102978.47;6249717;22;20076;-76
2023/05/18 05:27:38;;;;;;;6.82;2.75;;;;;;;13.69;49.62;102973.41;6249816;22;20077;-76
2023/05/18 05:30:06;;;;;;;5.32;2.50;;;;;;;13.92;49.76;102973.41;6250049;22;20036;-76
2023/05/18 05:32:35;;;;;;;7.95;2.50;;;;;;;13.55;48.92;102976.31;6249299;22;20024;-75
2023/05/18 05:35:03;;;;;;;10.45;2.80;;;;;;;12.97;49.32;102986.25;6249611;22;20132;-76
2023/05/18 05:37:30;;;;;;;5.30;2.75;;;;;;;11.95;51.70;102984.31;6224659;22;20047;-76
2023/05/18 05:39:58;;;;;;;9.13;2.75;;;;;;;11.23;54.08;102982.47;6249973;22;20051;-76
2023/05/18 05:42:25;;;;;;;7.03;3.00;;;;;;;10.63;55.09;102975.50;6224560;22;20480;-76
2023/05/18 05:44:52;;;;;;;5.53;2.75;;;;;;;10.32;57.15;102974.44;6224708;22;20465;-76
2023/05/18 05:47:19;;;;;;;11.50;3.05;;;;;;;10.12;56.79;102979.38;6249100;22;20052;-76
2023/05/18 05:49:46;;;;;;;10.57;3.03;;;;;;;9.90;58.25;102977.88;6249734;22;20017;-76
2023/05/18 05:52:12;;;;;;;9.02;2.97;;;;;;;9.84;58.36;102980.16;6249809;22;20520;-77
2023/05/18 05:54:40;;;;;;;7.25;2.60;;;;;;;9.74;58.96;102978.25;6248953;22;20028;-76
2023/05/18 05:57:08;;;;;;;5.65;2.92;;;;;;;9.69;59.35;102979.38;6249447;22;20128;-76
2023/05/18 05:59:35;;;;;;;5.40;3.00;;;;;;;9.64;60.11;102979.00;6249656;22;20067;-76
2023/05/18 06:02:02;;;;;;;8.23;2.88;;;;;;;9.56;60.05;102972.16;6249077;22;20016;-76
2023/05/18 06:04:29;;;;;;;5.25;2.60;;;;;;;9.63;60.45;102980.88;6224378;22;20031;-76
2023/05/18 06:06:56;;;;;;;7.18;2.72;;;;;;;9.67;60.01;102973.69;6249804;22;20021;-76
2023/05/18 06:09:22;;;;;;;6.72;2.38;;;;;;;9.77;60.04;102971.41;6249698;22;20027;-76
2023/05/18 06:11:49;;;;;;;7.30;3.22;;;;;;;9.92;59.96;102976.38;6249562;22;20017;-77
2023/05/18 06:14:16;;;;;;;3.30;1.98;;;;;;;10.33;58.84;102979.41;6224345;22;20032;-76
2023/05/18 06:16:43;;;;;;;10.15;2.47;;;;;;;10.56;58.18;102981.63;6248964;22;20067;-75
2023/05/18 06:19:10;;;;;;;10.52;2.03;;;;;;;10.70;58.05;102986.16;6249645;22;20024;-76
2023/05/18 06:21:36;;;;;;;9.40;2.40;;;;;;;10.85;56.98;102982.28;6249372;22;20465;-76
2023/05/18 06:24:04;;;;;;;4.85;2.47;;;;;;;10.99;57.82;102992.13;6249406;22;20075;-76
2023/05/18 06:26:53;;;;;;;4.20;1.92;;;;;;;11.00;55.93;103002.41;6242575;22;20048;-76
2023/05/18 06:29:45;;;;;;;9.10;3.22;;;;;;;11.02;55.28;103010.00;6249872;22;20016;-77
2023/05/18 06:32:21;;;;;;;5.50;2.20;;;;;;;11.04;55.52;102991.72;6248963;22;20021;-76
2023/05/18 06:34:52;;;;;;;7.95;2.47;;;;;;;11.09;55.66;102993.97;6251197;22;20132;-77
2023/05/18 06:37:20;;;;;;;11.52;2.70;;;;;;;11.18;54.62;102991.66;6251285;22;20419;-76
2023/05/18 06:39:47;;;;;;;8.63;2.33;;;;;;;11.20;55.24;102994.66;6249363;22;20021;-78
2023/05/18 06:42:14;;;;;;;9.50;2.70;;;;;;;11.16;54.54;102995.88;6224201;22;20075;-77
2023/05/18 06:44:50;;;;;;;9.60;2.60;;;;;;;11.19;55.47;102998.50;6249709;22;20023;-77
2023/05/18 06:47:20;;;;;;;7.68;2.20;;;;;;;11.42;54.28;102994.56;6251304;22;20469;-77
2023/05/18 06:49:46;;;;;;;4.60;2.03;;;;;;;11.74;54.01;103005.78;6249198;22;20039;-77
2023/05/18 06:52:14;;;;;;;6.93;2.15;;;;;;;12.02;53.05;103004.81;6251069;22;20346;-77
2023/05/18 06:54:42;;;;;;;12.68;2.58;;;;;;;12.16;52.67;103004.69;6248871;22;20417;-77
2023/05/18 06:57:08;;;;;;;8.55;2.40;;;;;;;12.33;52.17;103011.81;6248991;22;20398;-77
2023/05/18 06:59:35;;;;;;;9.43;2.50;;;;;;;12.34;52.37;103015.22;6251288;22;20047;-77
2023/05/18 07:02:02;;;;;;;5.43;2.10;;;;;;;12.43;51.97;103009.41;6250323;22;20067;-77
2023/05/18 07:04:30;;;;;;;4.85;2.20;;;;;;;12.63;52.31;103013.00;6225387;22;20020;-78
2023/05/18 07:06:57;;;;;;;8.70;2.42;;;;;;;12.70;51.05;103015.63;6252254;22;20023;-77
2023/05/18 07:09:24;;;;;;;6.72;1.88;;;;;;;12.86;51.20;103017.72;6252548;22;20012;-77
2023/05/18 07:11:51;;;;;;;10.25;2.20;;;;;;;12.89;49.78;103020.34;6252181;22;20470;-78
2023/05/18 07:14:17;;;;;;;10.80;2.40;;;;;;;12.89;49.46;103017.66;6251597;22;20021;-78
2023/05/18 07:16:46;;;;;;;11.40;2.30;;;;;;;12.76;49.15;103022.03;6252234;22;20012;-78
2023/05/18 07:19:13;;;;;;;5.22;2.70;;;;;;;12.71;49.92;103016.38;6250266;22;20012;-78
2023/05/18 07:21:40;;;;;;;4.30;1.73;;;;;;;12.58;49.65;103016.13;6252123;22;20103;-78
2023/05/18 07:24:06;;;;;;;7.18;2.40;;;;;;;12.38;49.86;103015.19;6252206;22;20020;-78
2023/05/18 07:26:33;;;;;;;6.25;1.90;;;;;;;12.30;50.05;103015.25;6252395;22;20012;-78
2023/05/18 07:28:59;;;;;;;4.68;2.22;;;;;;;12.40;50.17;103018.97;6251912;22;20039;-78
2023/05/18 07:31:26;;;;;;;8.60;1.90;;;;;;;12.41;49.72;103019.72;6252082;22;20044;-78
2023/05/18 07:33:53;;;;;;;8.05;2.13;;;;;;;12.39;49.74;103014.03;6252055;22;20091;-78
2023/05/18 07:36:20;;;;;;;10.77;2.63;;;;;;;12.46;49.19;103021.97;6252149;22;20023;-78
2023/05/18 07:38:46;;;;;;;5.90;2.08;;;;;;;12.39;49.13;103025.50;6252216;22;20023;-77
2023/05/18 07:41:13;;;;;;;5.40;2.20;;;;;;;12.46;50.12;103025.41;6252271;22;20016;-78
2023/05/18 07:43:40;;;;;;;10.15;2.45;;;;;;;12.57;48.86;103025.28;6251568;22;20017;-78
2023/05/18 07:46:06;;;;;;;12.60;2.53;;;;;;;12.68;49.58;103031.28;6252266;22;20093;-77
2023/05/18 07:48:33;;;;;;;4.70;2.42;;;;;;;12.64;49.11;103031.31;6252273;22;20347;-78
2023/05/18 07:50:59;;;;;;;6.90;2.17;;;;;;;12.66;48.41;103021.00;6252213;22;20506;-78
2023/05/18 07:53:26;;;;;;;6.28;2.42;;;;;;;12.79;50.02;103021.25;6251972;22;20020;-77
2023/05/18 07:55:52;;;;;;;6.43;1.98;;;;;;;12.99;49.08;103027.47;6251689;22;20047;-77
2023/05/18 07:58:19;;;;;;;6.72;1.90;;;;;;;12.97;48.51;103032.47;6251485;22;20051;-77
2023/05/18 08:00:46;;;;;;;5.93;2.13;;;;;;;13.03;48.13;103033.56;6252267;22;20478;-77
2023/05/18 08:03:12;;;;;;;3.85;1.75;;;;;;;13.12;48.00;103037.66;6252046;22;20021;-77
2023/05/18 08:05:39;;;;;;;6.72;2.10;;;;;;;12.92;48.19;103040.16;6251998;22;20115;-78
2023/05/18 08:08:07;;;;;;;5.15;2.03;;;;;;;12.90;48.10;103039.81;6252203;22;20024;-78
2023/05/18 08:10:33;;;;;;;9.45;2.33;;;;;;;12.84;48.83;103042.16;6251447;22;20013;-77
2023/05/18 08:12:59;;;;;;;8.15;2.55;;;;;;;12.89;48.31;103039.06;6251304;22;20085;-77
2023/05/18 08:15:26;;;;;;;6.10;1.90;;;;;;;12.97;48.93;103039.72;6251963;22;20433;-78
2023/05/18 08:17:53;;;;;;;10.20;2.20;;;;;;;13.10;48.64;103038.06;6251990;22;20017;-77
2023/05/18 08:20:20;;;;;;;7.25;2.25;;;;;;;13.29;48.08;103048.13;6224799;22;20016;-78
2023/05/18 08:22:47;;;;;;;4.53;2.17;;;;;;;13.12;48.00;103038.41;6251941;22;20538;-78
2023/05/18 08:25:14;;;;;;;7.30;2.38;;;;;;;13.31;47.86;103037.78;6224836;22;20013;-78
2023/05/18 08:27:40;;;;;;;4.80;1.92;;;;;;;13.51;46.52;103047.88;6249801;22;20032;-78
2023/05/18 08:30:08;;;;;;;6.32;2.08;;;;;;;13.53;47.18;103043.63;6251886;22;20017;-78
2023/05/18 08:32:36;;;;;;;3.95;2.33;;;;;;;13.61;46.32;103039.66;6251920;22;20534;-78
2023/05/18 08:35:07;;;;;;;6.45;2.30;;;;;;;13.77;46.57;103031.03;6251679;22;20075;-78
2023/05/18 08:37:36;;;;;;;26.35;2.83;;;;;;;14.01;46.85;103040.56;6252004;22;20016;-78
2023/05/18 08:40:06;;;;;;;9.23;2.25;;;;;;;14.46;44.70;103036.78;6251841;22;20447;-78
2023/05/18 08:42:43;;;;;;;6.20;2.20;;;;;;;14.81;45.58;103033.44;6251130;22;20087;-78
2023/05/18 08:46:00;;;;;;;7.80;2.30;;;;;;;15.07;44.92;103031.78;6252182;22;20023;-79
2023/05/18 08:48:30;;;;;;;6.85;2.28;;;;;;;15.17;43.61;103030.03;6239675;22;20021;-78
2023/05/18 08:50:57;;;;;;;4.80;2.17;;;;;;;15.27;43.48;103029.78;6251788;22;20172;-78
2023/05/18 08:53:24;;;;;;;4.63;2.25;;;;;;;15.12;43.49;103025.16;6251829;22;20016;-77
2023/05/18 08:55:53;;;;;;;8.90;2.17;;;;;;;14.99;43.65;103023.09;6250853;22;20450;-78
2023/05/18 08:58:29;;;;;;;8.57;2.42;;;;;;;14.54;43.74;103025.53;6249962;22;20413;-78
2023/05/18 09:00:56;;;;;;;5.25;2.33;;;;;;;14.40;43.82;103028.44;6251999;22;20013;-78
2023/05/18 09:03:23;;;;;;;5.25;2.33;;;;;;;14.34;44.33;103014.78;6251740;22;20096;-78
2023/05/18 09:05:51;;;;;;;6.78;2.13;;;;;;;14.71;45.21;103009.53;6251752;22;20017;-78
2023/05/18 09:08:18;;;;;;;5.43;2.63;;;;;;;14.85;44.35;103009.97;6251717;22;20012;-78
2023/05/18 09:10:47;;;;;;;6.82;2.60;;;;;;;14.89;43.25;103012.59;6251121;22;20022;-78
2023/05/18 09:13:17;;;;;;;11.82;1.98;;;;;;;14.90;43.51;103006.81;6251650;22;20017;-78
2023/05/18 09:15:43;;;;;;;4.82;2.30;;;;;;;15.29;43.85;103007.91;6224938;22;20120;-78
2023/05/18 09:18:10;;;;;;;5.78;2.35;;;;;;;15.38;41.75;103001.97;6249958;22;20446;-78
2023/05/18 09:20:37;;;;;;;5.75;2.40;;;;;;;15.39;43.09;103009.59;6251595;22;20497;-78
2023/05/18 09:23:04;;;;;;;8.30;2.35;;;;;;;15.16;42.15;103002.44;6251312;22;20622;-78
2023/05/18 09:25:33;;;;;;;5.45;2.33;;;;;;;15.16;42.69;103004.38;6251003;22;20473;-78
2023/05/18 09:28:03;;;;;;;7.05;2.40;;;;;;;15.36;42.24;102999.69;6251611;22;20469;-78
2023/05/18 09:30:39;;;;;;;5.97;2.40;;;;;;;15.36;42.56;103005.06;6251809;22;20449;-78
2023/05/18 09:33:15;;;;;;;6.32;2.28;;;;;;;15.27;42.36;102991.47;6250275;22;20129;-78
2023/05/18 09:35:45;;;;;;;7.55;2.60;;;;;;;15.33;41.99;102992.47;6251620;22;20040;-78
2023/05/18 09:38:20;;;;;;;4.93;2.55;;;;;;;15.58;42.57;102994.63;6249682;22;20045;-78
2023/05/18 09:40:48;;;;;;;7.45;2.33;;;;;;;15.72;41.28;102980.84;6251104;22;20491;-78
2023/05/18 09:43:17;;;;;;;5.20;2.38;;;;;;;15.83;41.36;102980.59;6251571;22;20025;-78
2023/05/18 09:45:47;;;;;;;6.28;2.60;;;;;;;15.79;41.22;102991.44;6251756;22;20012;-78
2023/05/18 09:48:15;;;;;;;5.78;2.50;;;;;;;15.74;41.62;102986.56;6251827;22;20055;-78
2023/05/18 09:50:45;;;;;;;10.00;2.40;;;;;;;15.76;41.92;102988.81;6250003;22;20013;-78
2023/05/18 09:53:12;;;;;;;4.50;2.67;;;;;;;15.76;42.05;102986.13;6251526;22;20045;-79
2023/05/18 09:55:47;;;;;;;4.40;2.20;;;;;;;15.67;42.75;102994.78;6250506;22;20477;-78
2023/05/18 09:58:15;;;;;;;9.98;2.70;;;;;;;15.40;42.23;102992.31;6224646;22;20068;-78
2023/05/18 10:00:55;;;;;;;5.68;2.33;;;;;;;15.52;42.59;102983.63;6250023;22;20088;-78
2023/05/18 10:03:23;;;;;;;6.38;2.20;;;;;;;15.94;42.28;102981.09;6251510;22;20327;-78
2023/05/18 10:05:50;;;;;;;8.35;2.63;;;;;;;16.17;42.22;102988.91;6249945;22;20017;-78
2023/05/18 10:08:17;;;;;;;6.68;2.45;;;;;;;16.33;41.48;102980.81;6249141;22;20024;-78
2023/05/18 10:10:45;;;;;;;6.70;2.78;;;;;;;16.33;40.66;102983.50;6251423;22;20057;-78
2023/05/18 10:13:16;;;;;;;8.73;2.78;;;;;;;16.41;40.26;102975.22;6251526;22;20017;-79
2023/05/18 10:15:52;;;;;;;7.35;2.58;;;;;;;16.58;39.78;102968.63;6251767;22;20024;-79
2023/05/18 10:18:31;;;;;;;6.15;2.88;;;;;;;16.46;40.82;102967.41;6251551;22;20017;-79
2023/05/18 10:20:59;;;;;;;5.85;2.60;;;;;;;16.50;40.67;102965.38;6251353;22;20088;-79
2023/05/18 10:23:30;;;;;;;6.25;2.90;;;;;;;16.55;39.56;102969.47;6250899;22;20543;-79
2023/05/18 10:25:58;;;;;;;8.48;2.47;;;;;;;16.45;40.34;102971.25;6251535;22;20463;-79
2023/05/18 10:28:29;;;;;;;7.47;2.65;;;;;;;16.22;39.88;102964.22;6249490;22;20017;-79
2023/05/18 10:30:58;;;;;;;4.20;2.28;;;;;;;16.65;40.75;102952.31;6251542;22;20455;-79
2023/05/18 10:33:26;;;;;;;6.25;2.63;;;;;;;16.88;39.59;102957.38;6250603;22;20067;-78
2023/05/18 10:35:55;;;;;;;6.75;2.78;;;;;;;16.87;39.59;102961.25;6251280;22;20027;-79
2023/05/18 10:38:24;;;;;;;6.95;2.95;;;;;;;16.87;39.19;102957.81;6250718;22;20017;-79
2023/05/18 10:41:01;;;;;;;5.10;2.53;;;;;;;16.99;39.07;102955.13;6251165;22;20013;-78
2023/05/18 10:43:28;;;;;;;8.40;2.70;;;;;;;17.23;38.87;102952.09;6251274;22;20044;-79
2023/05/18 10:45:59;;;;;;;6.95;2.75;;;;;;;17.44;39.33;102956.06;6251189;22;20013;-79
2023/05/18 10:48:27;;;;;;;5.85;2.50;;;;;;;17.52;38.13;102952.72;6251175;22;20040;-79
2023/05/18 10:50:56;;;;;;;5.90;2.63;;;;;;;17.65;39.22;102948.06;6249569;22;20012;-79
2023/05/18 10:53:30;;;;;;;5.22;2.50;;;;;;;17.77;39.46;102943.81;6250671;22;20103;-79
2023/05/18 10:55:57;;;;;;;9.40;3.03;;;;;;;17.68;38.22;102946.44;6250561;22;20446;-79
2023/05/18 10:58:28;;;;;;;7.55;2.97;;;;;;;17.85;39.04;102938.94;6251156;22;20457;-79
2023/05/18 11:00:56;;;;;;;7.35;2.63;;;;;;;18.14;38.29;102949.50;6251257;22;20358;-79
2023/05/18 11:03:25;;;;;;;4.63;2.75;;;;;;;18.24;36.91;102941.03;6251058;22;20020;-79
2023/05/18 11:06:09;;;;;;;5.10;2.80;;;;;;;18.06;38.30;102945.53;6250574;22;20016;-79
2023/05/18 11:08:49;;;;;;;3.88;2.10;;;;;;;18.10;37.52;102936.13;6251071;22;20023;-77
2023/05/18 11:11:15;;;;;;;13.07;2.60;;;;;;;18.16;36.42;102939.03;6249121;22;20028;-77
2023/05/18 11:13:50;;;;;;;7.15;2.70;;;;;;;18.37;36.28;102932.13;6248825;22;20087;-77
2023/05/18 11:16:18;;;;;;;4.60;2.75;;;;;;;18.46;36.25;102941.00;6223954;22;20096;-77
2023/05/18 11:18:49;;;;;;;3.42;2.72;;;;;;;18.33;36.42;102940.34;6250706;22;20047;-78
2023/05/18 11:21:31;;;;;;;7.65;2.20;;;;;;;18.50;36.07;102935.47;6250362;22;20426;-79
2023/05/18 11:24:23;;;;;;;8.73;2.60;;;;;;;18.62;36.32;102931.97;6250983;22;20017;-78
2023/05/18 11:26:52;;;;;;;4.30;2.40;;;;;;;18.54;35.61;102934.16;6250857;22;20017;-78
2023/05/18 11:29:43;;;;;;;7.97;2.33;;;;;;;18.53;35.65;102918.41;6250748;22;20051;-77
2023/05/18 11:32:23;;;;;;;;;;;;;;;19.02;36.94;102920.44;6251257;22;20024;-77
2023/05/18 11:34:56;;;;;;;5.43;2.80;;;;;;;19.05;35.03;102917.59;6250399;22;20019;-77
2023/05/18 11:37:38;;;;;;;5.97;2.60;;;;;;;19.05;36.07;102923.00;6250599;22;20016;-77
2023/05/18 11:40:09;;;;;;;4.50;2.65;;;;;;;19.14;35.71;102925.72;6250609;22;20079;-80